Time;durP1;ratioP1;P1;durP2;ratioP2;P2;SDS_P1;SDS_P2;PMS_P1;PMS_P2;Temp;Humidity;BMP_temperature;BMP_pressure;BME280_temperature;BME280_humidity;BME280_pressure;Samples;Min_cycle;Max_cycle;Signal;HPM_P1;HPM_P2
2022/10/04 00:01:02;;;;;;;8.13;3.63;;;;;;;10.27;100.00;97675.69;5128491;28;20019;-79
2022/10/04 00:03:34;;;;;;;9.77;4.05;;;;;;;10.42;100.00;97684.63;5146507;28;20022;-79
2022/10/04 00:06:00;;;;;;;10.77;3.92;;;;;;;10.44;100.00;97681.84;5127491;28;20027;-79
2022/10/04 00:08:58;;;;;;;6.93;3.30;;;;;;;10.40;100.00;97678.50;5144775;28;20033;-80
2022/10/04 00:11:31;;;;;;;5.30;3.15;;;;;;;10.40;100.00;97678.50;5125366;28;20037;-79
2022/10/04 00:13:58;;;;;;;7.32;3.55;;;;;;;10.42;100.00;97678.41;5128144;28;20023;-80
2022/10/04 00:16:30;;;;;;;12.55;3.42;;;;;;;10.39;100.00;97682.13;5111046;28;20169;-80
2022/10/04 00:19:37;;;;;;;9.00;3.55;;;;;;;10.38;100.00;97676.88;5127848;28;20042;-79
2022/10/04 00:22:09;;;;;;;7.70;3.20;;;;;;;10.38;100.00;97683.06;5128416;28;20040;-79
2022/10/04 00:24:35;;;;;;;6.70;3.22;;;;;;;10.35;100.00;97677.91;5146094;28;20027;-79
2022/10/04 00:27:17;;;;;;;10.13;3.28;;;;;;;10.30;100.00;97672.81;5111549;27;20068;-79
2022/10/04 00:29:43;;;;;;;4.63;2.90;;;;;;;10.20;100.00;97663.63;5124903;27;20055;-78
2022/10/04 00:32:08;;;;;;;6.18;3.17;;;;;;;10.29;100.00;97670.25;5113538;27;20031;-79
2022/10/04 00:34:34;;;;;;;4.75;2.83;;;;;;;10.16;100.00;97659.41;5146611;27;20030;-79
2022/10/04 00:37:00;;;;;;;8.10;3.05;;;;;;;10.10;100.00;97661.53;5150016;27;20031;-79
2022/10/04 00:39:37;;;;;;;3.53;2.80;;;;;;;10.05;100.00;97647.59;5131625;27;20037;-79
2022/10/04 00:42:24;;;;;;;4.32;3.03;;;;;;;9.98;100.00;97656.91;5114692;27;20075;-80
2022/10/04 00:45:01;;;;;;;3.80;2.50;;;;;;;9.92;100.00;97660.81;5149115;27;20038;-80
2022/10/04 00:47:45;;;;;;;3.92;2.65;;;;;;;9.85;100.00;97663.91;5150131;27;20027;-80
2022/10/04 00:50:21;;;;;;;7.22;2.83;;;;;;;9.87;100.00;97660.22;5146977;27;20087;-80
2022/10/04 00:52:54;;;;;;;8.88;2.70;;;;;;;9.76;100.00;97657.28;5112066;27;20051;-79
2022/10/04 00:55:32;;;;;;;3.67;2.78;;;;;;;9.84;100.00;97663.06;5129109;27;20478;-79
2022/10/04 00:57:59;;;;;;;6.05;2.75;;;;;;;9.77;100.00;97670.56;5147762;27;20031;-79
2022/10/04 01:00:26;;;;;;;5.05;2.65;;;;;;;9.76;100.00;97667.97;5129318;27;20478;-80
2022/10/04 01:03:00;;;;;;;6.53;2.67;;;;;;;9.82;100.00;97683.66;5109325;27;20027;-80
2022/10/04 01:05:36;;;;;;;3.33;2.60;;;;;;;9.82;100.00;97686.31;5127287;27;20026;-80
2022/10/04 01:08:10;;;;;;;5.82;3.25;;;;;;;9.82;100.00;97689.84;5128042;27;20035;-80
2022/10/04 01:10:41;;;;;;;3.97;2.60;;;;;;;9.82;100.00;97689.00;5129399;27;20055;-80
2022/10/04 01:13:19;;;;;;;3.58;2.55;;;;;;;9.81;100.00;97688.13;5126829;27;20091;-79
2022/10/04 01:15:58;;;;;;;5.18;2.85;;;;;;;9.77;100.00;97691.06;5108183;27;20026;-80
2022/10/04 01:18:24;;;;;;;6.43;2.47;;;;;;;9.78;100.00;97688.28;5122770;27;20112;-79
2022/10/04 01:21:19;;;;;;;6.88;2.70;;;;;;;9.71;100.00;97675.41;5146978;27;20031;-79
2022/10/04 01:23:50;;;;;;;4.75;2.53;;;;;;;9.71;100.00;97678.06;5112041;27;20043;-81
2022/10/04 01:26:33;;;;;;;7.05;2.63;;;;;;;9.73;100.00;97685.03;5146426;27;20125;-80
2022/10/04 01:29:14;;;;;;;5.45;2.15;;;;;;;9.75;100.00;97684.97;5143681;27;20047;-80
2022/10/04 01:31:43;;;;;;;5.03;2.80;;;;;;;9.69;100.00;97688.81;5122290;27;20033;-79
2022/10/04 01:34:12;;;;;;;7.68;2.50;;;;;;;9.68;100.00;97691.59;5120280;27;20398;-80
2022/10/04 01:36:37;;;;;;;3.20;1.92;;;;;;;9.76;100.00;97689.34;5106138;27;20030;-79
2022/10/04 01:39:04;;;;;;;6.75;2.30;;;;;;;9.84;100.00;97696.94;5126875;27;20019;-80
2022/10/04 01:41:45;;;;;;;6.28;2.55;;;;;;;9.80;100.00;97694.44;5128779;27;20019;-79
2022/10/04 01:44:34;;;;;;;5.63;3.08;;;;;;;9.84;100.00;97699.59;5143401;27;20023;-79
2022/10/04 01:47:04;;;;;;;5.70;3.42;;;;;;;9.86;100.00;97689.69;5111486;27;20065;-79
2022/10/04 01:49:31;;;;;;;5.13;2.60;;;;;;;9.87;100.00;97681.59;5129408;27;20027;-80
2022/10/04 01:52:03;;;;;;;5.20;2.15;;;;;;;9.84;100.00;97680.91;5127569;27;20039;-79
2022/10/04 01:54:37;;;;;;;4.40;2.20;;;;;;;9.86;100.00;97684.34;5147468;27;20023;-79
2022/10/04 01:57:13;;;;;;;5.47;2.88;;;;;;;9.88;100.00;97691.31;5128242;27;20031;-78
2022/10/04 02:00:18;;;;;;;5.25;2.50;;;;;;;9.83;100.00;97693.41;5126722;27;20053;-78
2022/10/04 02:03:21;;;;;;;3.85;2.67;;;;;;;9.81;100.00;97693.47;5046624;28;20028;-79
2022/10/04 02:05:51;;;;;;;5.22;2.47;;;;;;;9.85;100.00;97709.31;5063234;28;20036;-79
2022/10/04 02:08:23;;;;;;;5.97;2.38;;;;;;;9.82;100.00;97705.03;5113691;27;20051;-81
2022/10/04 02:10:49;;;;;;;4.45;2.22;;;;;;;9.80;100.00;97698.91;5123223;27;20023;-80
2022/10/04 02:13:17;;;;;;;5.47;2.20;;;;;;;9.80;100.00;97709.59;5122337;27;20060;-79
2022/10/04 02:15:46;;;;;;;3.67;2.30;;;;;;;9.69;100.00;97704.84;5125217;27;20095;-80
2022/10/04 02:18:16;;;;;;;4.25;2.88;;;;;;;9.66;100.00;97714.81;5125599;27;20086;-80
2022/10/04 02:20:42;;;;;;;6.90;2.70;;;;;;;9.69;100.00;97698.66;5143901;27;20047;-80
2022/10/04 02:23:09;;;;;;;8.25;2.30;;;;;;;9.83;100.00;97709.41;5107797;27;20060;-80
2022/10/04 02:25:35;;;;;;;4.90;2.20;;;;;;;9.87;100.00;97708.31;5125452;27;20099;-80
2022/10/04 02:28:01;;;;;;;4.63;2.20;;;;;;;9.87;100.00;97702.97;5125337;27;20086;-80
2022/10/04 02:30:28;;;;;;;3.95;2.20;;;;;;;9.93;100.00;97709.78;5114883;28;20063;-80
2022/10/04 02:32:58;;;;;;;6.00;2.53;;;;;;;9.91;100.00;97720.53;5107625;28;20031;-80
2022/10/04 02:35:27;;;;;;;6.63;2.72;;;;;;;9.98;100.00;97721.91;5116643;27;20042;-79
2022/10/04 02:38:11;;;;;;;7.90;2.92;;;;;;;9.99;100.00;97737.00;5101982;28;20019;-80
2022/10/04 02:40:47;;;;;;;5.82;2.95;;;;;;;9.94;100.00;97725.69;5126571;27;20058;-79
2022/10/04 02:43:19;;;;;;;6.38;2.70;;;;;;;9.90;100.00;97728.66;5114681;28;20027;-80
2022/10/04 02:45:54;;;;;;;;;;;;;;;10.01;100.00;97753.81;5088846;28;20027;-80
2022/10/04 02:48:53;;;;;;;8.30;2.70;;;;;;;9.96;100.00;97758.56;5099000;28;19911;-80
2022/10/04 02:51:45;;;;;;;6.78;2.60;;;;;;;10.00;100.00;97759.22;5110488;28;20031;-80
2022/10/04 02:54:23;;;;;;;4.50;2.38;;;;;;;10.04;100.00;97758.13;5102991;28;20066;-79
2022/10/04 02:56:52;;;;;;;8.98;2.97;;;;;;;10.05;100.00;97757.16;5137741;27;20081;-80
2022/10/04 02:59:17;;;;;;;11.00;3.22;;;;;;;10.18;100.00;97768.94;5088064;28;20114;-80
2022/10/04 03:01:59;;;;;;;7.07;3.50;;;;;;;10.19;100.00;97760.81;5120673;28;20027;-80
2022/10/04 03:04:27;;;;;;;12.93;3.17;;;;;;;10.07;100.00;97747.25;5107021;28;20031;-80
2022/10/04 03:06:54;;;;;;;7.78;3.60;;;;;;;10.11;100.00;97765.72;5095379;28;20036;-79
2022/10/04 03:09:21;;;;;;;4.22;3.28;;;;;;;10.18;100.00;97766.25;5104080;28;20051;-80
2022/10/04 03:11:48;;;;;;;6.60;3.17;;;;;;;10.16;100.00;97762.78;5113183;28;20059;-79
2022/10/04 03:14:27;;;;;;;8.57;3.65;;;;;;;10.22;100.00;97763.31;5109377;28;20019;-80
2022/10/04 03:16:55;;;;;;;7.72;3.03;;;;;;;10.29;100.00;97767.38;5107909;28;20034;-80
2022/10/04 03:19:22;;;;;;;10.32;3.55;;;;;;;10.26;100.00;97762.19;5102446;28;20023;-81
2022/10/04 03:21:50;;;;;;;7.32;3.25;;;;;;;10.37;100.00;97771.41;5117332;28;20019;-78
2022/10/04 03:24:45;;;;;;;8.77;4.50;;;;;;;10.36;100.00;97769.69;5103316;28;20032;-80
2022/10/04 03:27:32;;;;;;;5.65;2.80;;;;;;;10.31;100.00;97767.25;5113402;28;20493;-80
2022/10/04 03:29:58;;;;;;;7.63;2.97;;;;;;;10.32;100.00;97763.66;5116812;28;20039;-80
2022/10/04 03:32:24;;;;;;;9.40;3.80;;;;;;;10.29;100.00;97770.03;5113973;28;20030;-80
2022/10/04 03:34:58;;;;;;;8.48;4.13;;;;;;;10.24;100.00;97756.06;5116066;28;20053;-80
2022/10/04 03:37:25;;;;;;;11.75;5.70;;;;;;;10.23;100.00;97770.38;5118523;28;20028;-80
2022/10/04 03:39:53;;;;;;;9.10;4.35;;;;;;;10.22;100.00;97763.31;5111267;28;20478;-79
2022/10/04 03:42:24;;;;;;;16.17;4.35;;;;;;;10.32;100.00;97785.91;5109781;28;20080;-80
2022/10/04 03:44:52;;;;;;;9.45;3.80;;;;;;;10.42;100.00;97790.72;5112472;28;20032;-79
2022/10/04 03:47:26;;;;;;;11.05;4.63;;;;;;;10.38;100.00;97771.31;5093028;28;20028;-79
2022/10/04 03:49:54;;;;;;;10.10;4.13;;;;;;;10.52;100.00;97778.56;5099769;28;20063;-79
2022/10/04 03:52:34;;;;;;;8.68;4.57;;;;;;;10.60;100.00;97782.50;5116406;28;20087;-79
2022/10/04 03:55:02;;;;;;;8.43;4.10;;;;;;;10.59;100.00;97793.28;5120471;28;20069;-79
2022/10/04 03:57:29;;;;;;;17.17;6.10;;;;;;;10.51;100.00;97796.41;5111077;28;20347;-79
2022/10/04 03:59:55;;;;;;;8.05;4.85;;;;;;;10.26;100.00;97770.22;5108580;28;20035;-80
2022/10/04 04:02:50;;;;;;;12.93;5.50;;;;;;;10.40;100.00;97792.63;5122150;28;20450;-79
2022/10/04 04:05:15;;;;;;;7.53;4.80;;;;;;;10.37;100.00;97798.16;5106385;28;20032;-79
2022/10/04 04:08:28;;;;;;;10.07;4.88;;;;;;;10.37;100.00;97788.31;5135853;27;20049;-80
2022/10/04 04:10:57;;;;;;;10.60;4.72;;;;;;;10.38;100.00;97784.69;5103834;28;20039;-80
2022/10/04 04:13:26;;;;;;;9.65;4.20;;;;;;;10.40;100.00;97795.31;5102809;28;20035;-79
2022/10/04 04:15:53;;;;;;;8.45;4.47;;;;;;;10.30;100.00;97795.81;5098203;28;20107;-79
2022/10/04 04:18:21;;;;;;;8.93;3.90;;;;;;;10.26;100.00;97788.06;5099279;28;20460;-80
2022/10/04 04:20:50;;;;;;;11.75;4.25;;;;;;;10.33;100.00;97794.78;5108656;28;20027;-80
2022/10/04 04:23:23;;;;;;;9.45;4.20;;;;;;;10.38;100.00;97791.84;5108213;28;20057;-80
2022/10/04 04:25:53;;;;;;;9.85;4.47;;;;;;;10.41;100.00;97783.66;5117453;28;20039;-79
2022/10/04 04:28:30;;;;;;;9.45;4.38;;;;;;;10.36;100.00;97778.56;5107014;28;20032;-80
2022/10/04 04:31:18;;;;;;;15.63;6.18;;;;;;;10.48;100.00;97787.69;5119652;28;20032;-80
2022/10/04 04:33:47;;;;;;;23.55;7.22;;;;;;;10.54;100.00;97795.38;5127336;28;20035;-80
2022/10/04 04:36:14;;;;;;;12.30;6.00;;;;;;;10.50;100.00;97793.81;5141141;27;20027;-79
2022/10/04 04:41:30;;;;;;;13.60;5.38;;;;;;;10.52;100.00;97813.31;5079926;28;20039;-79
2022/10/04 04:43:56;;;;;;;25.42;5.68;;;;;;;10.43;100.00;97800.47;5106485;28;20028;-79
2022/10/04 04:46:22;;;;;;;48.00;9.75;;;;;;;10.45;100.00;97815.47;5113398;28;20015;-82
2022/10/04 04:48:59;;;;;;;19.92;9.07;;;;;;;10.53;100.00;97817.69;5091868;28;20042;-79
2022/10/04 04:51:24;;;;;;;28.92;10.98;;;;;;;10.51;100.00;97811.59;5096636;28;20031;-80
2022/10/04 04:53:51;;;;;;;18.48;9.00;;;;;;;10.50;100.00;97816.06;5118195;28;20165;-80
2022/10/04 04:56:20;;;;;;;30.23;13.55;;;;;;;10.51;100.00;97812.47;5116725;28;20028;-80
2022/10/04 04:58:48;;;;;;;23.27;11.00;;;;;;;10.49;100.00;97810.81;5112079;28;20027;-80
2022/10/04 05:01:15;;;;;;;16.38;6.53;;;;;;;10.54;100.00;97819.44;5091040;28;20114;-80
2022/10/04 05:03:41;;;;;;;20.17;5.85;;;;;;;10.61;100.00;97828.84;5108009;28;20528;-80
2022/10/04 05:06:40;;;;;;;17.75;6.72;;;;;;;10.51;100.00;97824.97;5089039;28;20035;-80
2022/10/04 05:09:22;;;;;;;22.35;6.43;;;;;;;10.33;100.00;97825.06;5083035;27;20043;-80
2022/10/04 05:11:48;;;;;;;65.53;31.90;;;;;;;10.32;100.00;97834.03;5116026;28;20034;-81
2022/10/04 05:14:14;;;;;;;30.83;9.55;;;;;;;10.26;100.00;97829.03;5105579;28;20066;-79
2022/10/04 05:16:43;;;;;;;17.52;7.13;;;;;;;10.25;100.00;97821.94;5112929;28;20035;-80
2022/10/04 05:19:21;;;;;;;12.32;6.10;;;;;;;10.31;100.00;97828.75;5144268;27;20046;-79
2022/10/04 05:21:52;;;;;;;12.15;5.68;;;;;;;10.29;100.00;97838.69;5122177;28;20379;-79
2022/10/04 05:24:25;;;;;;;20.55;6.72;;;;;;;10.41;100.00;97853.16;5121286;28;20024;-81
2022/10/04 05:26:57;;;;;;;23.73;7.47;;;;;;;10.52;100.00;97856.13;5117661;28;20091;-80
2022/10/04 05:29:26;;;;;;;18.35;6.45;;;;;;;10.58;100.00;97848.56;5109033;28;20043;-79
2022/10/04 05:31:55;;;;;;;22.40;6.68;;;;;;;10.64;100.00;97868.78;5113693;28;20031;-80
2022/10/04 05:34:26;;;;;;;14.27;5.93;;;;;;;10.71;100.00;97860.31;5119717;28;20884;-81
2022/10/04 05:37:30;;;;;;;24.42;7.10;;;;;;;10.80;100.00;97867.81;5109711;28;20027;-79
2022/10/04 05:40:04;;;;;;;25.63;6.95;;;;;;;10.82;100.00;97865.06;5081804;28;20101;-79
2022/10/04 05:42:44;;;;;;;28.55;7.18;;;;;;;10.75;100.00;97869.03;5116391;28;20015;-79
2022/10/04 05:45:17;;;;;;;21.20;8.88;;;;;;;10.68;100.00;97864.97;5115228;28;20031;-80
2022/10/04 05:47:45;;;;;;;25.92;9.23;;;;;;;10.72;100.00;97863.84;5112074;28;20031;-81
2022/10/04 05:50:41;;;;;;;27.05;9.90;;;;;;;10.60;100.00;97877.94;5083627;28;20411;-79
2022/10/04 05:53:06;;;;;;;24.58;11.60;;;;;;;10.59;100.00;97876.19;5099433;28;20046;-82
2022/10/04 05:55:51;;;;;;;32.88;11.70;;;;;;;10.73;100.00;97887.00;5113753;28;20035;-80
2022/10/04 05:59:01;;;;;;;36.30;15.15;;;;;;;10.88;100.00;97903.03;5123102;28;20084;-80
2022/10/04 06:01:33;;;;;;;27.80;12.25;;;;;;;10.87;100.00;97895.06;5094589;28;20027;-79
2022/10/04 06:04:17;;;;;;;40.60;11.43;;;;;;;10.98;100.00;97903.38;5132067;28;20034;-79
2022/10/04 06:07:01;;;;;;;30.20;11.30;;;;;;;10.96;100.00;97896.34;5118654;28;20265;-77
2022/10/04 06:10:14;;;;;;;21.52;10.02;;;;;;;11.13;100.00;97910.50;5121251;27;20034;-77
2022/10/04 06:13:07;;;;;;;51.92;23.05;;;;;;;11.27;100.00;97910.56;5071164;28;20104;-77
2022/10/04 06:15:48;;;;;;;;;;;;;;;11.39;100.00;97915.19;5113139;28;20035;-76
2022/10/04 06:18:53;;;;;;;42.53;12.45;;;;;;;11.45;100.00;97911.28;5102670;28;19957;-76
2022/10/04 06:21:30;;;;;;;22.65;11.02;;;;;;;11.67;100.00;97924.25;5094227;28;20020;-77
2022/10/04 06:24:02;;;;;;;22.05;11.18;;;;;;;11.89;100.00;97936.28;5095066;28;20441;-76
2022/10/04 06:26:36;;;;;;;62.03;29.67;;;;;;;12.07;100.00;97936.97;5107970;27;20023;-76
2022/10/04 06:29:07;;;;;;;23.00;9.90;;;;;;;12.24;100.00;97936.78;5118501;27;20105;-76
2022/10/04 06:31:35;;;;;;;22.77;10.68;;;;;;;12.44;100.00;97944.47;5099820;28;20023;-76
2022/10/04 06:34:38;;;;;;;28.50;10.85;;;;;;;12.64;100.00;97945.91;5112281;28;20027;-77
2022/10/04 06:37:42;;;;;;;36.15;12.73;;;;;;;12.72;100.00;97930.16;5105388;28;20024;-76
2022/10/04 06:40:44;;;;;;;27.77;12.38;;;;;;;12.91;100.00;97930.69;5020589;28;20033;-78
2022/10/04 06:43:34;;;;;;;40.78;11.07;;;;;;;13.25;98.88;97931.19;5102588;28;20036;-76
2022/10/04 06:46:15;;;;;;;26.33;10.10;;;;;;;14.50;94.00;97973.56;5093829;28;20032;-76
2022/10/04 06:49:32;;;;;;;32.22;10.95;;;;;;;17.08;77.00;97921.31;5111979;28;20053;-77
2022/10/04 06:52:12;;;;;;;29.02;9.77;;;;;;;19.55;65.12;97856.16;5014422;28;20029;-76
2022/10/04 06:55:02;;;;;;;32.28;11.50;;;;;;;21.48;56.27;97811.75;5131620;27;20112;-78
2022/10/04 06:57:46;;;;;;;26.40;10.77;;;;;;;20.71;56.22;97768.75;5077536;28;20028;-77
2022/10/04 07:00:17;;;;;;;23.42;11.50;;;;;;;19.00;60.16;97749.19;5093440;28;20055;-78
2022/10/04 07:02:48;;;;;;;25.95;13.73;;;;;;;17.41;65.86;97741.88;5093273;28;20035;-76
2022/10/04 07:05:33;;;;;;;26.27;10.60;;;;;;;16.57;70.91;97740.03;5092944;28;20040;-76
2022/10/04 07:08:35;;;;;;;17.52;10.07;;;;;;;15.87;76.03;97748.47;5111470;28;20084;-77
2022/10/04 07:11:15;;;;;;;14.52;7.90;;;;;;;15.73;79.52;97759.47;5110001;28;20039;-77
2022/10/04 07:13:50;;;;;;;19.00;5.78;;;;;;;16.34;76.05;97773.44;5114574;27;20035;-75
2022/10/04 07:16:15;;;;;;;10.73;5.60;;;;;;;16.44;75.21;97769.88;5094026;28;20076;-76
2022/10/04 07:19:23;;;;;;;10.25;3.63;;;;;;;16.77;71.26;97760.84;5111719;28;20403;-76
2022/10/04 07:22:00;;;;;;;10.18;4.72;;;;;;;17.09;70.35;97761.72;5111652;28;20023;-75
2022/10/04 07:24:44;;;;;;;10.98;4.85;;;;;;;16.98;69.29;97750.09;5093334;28;20027;-75
2022/10/04 07:27:15;;;;;;;17.45;6.70;;;;;;;17.10;68.30;97746.34;5109303;28;20786;-75
2022/10/04 07:29:45;;;;;;;14.55;6.07;;;;;;;17.23;67.39;97747.00;5110152;28;20073;-76
2022/10/04 07:32:22;;;;;;;5.03;3.55;;;;;;;17.61;64.92;97736.47;5110274;28;20131;-75
2022/10/04 07:35:03;;;;;;;7.32;3.78;;;;;;;18.06;64.20;97749.63;5084935;28;20027;-76
2022/10/04 07:37:33;;;;;;;5.88;3.22;;;;;;;18.41;63.08;97750.06;5086341;28;20122;-77
2022/10/04 07:40:08;;;;;;;7.22;3.67;;;;;;;18.61;60.74;97741.00;5107176;28;20031;-77
2022/10/04 07:42:47;;;;;;;4.35;2.55;;;;;;;19.17;59.05;97737.63;5099487;28;20031;-77
2022/10/04 07:45:19;;;;;;;6.45;2.10;;;;;;;19.44;55.99;97725.06;5100563;28;20570;-76
2022/10/04 07:47:46;;;;;;;2.92;1.42;;;;;;;19.69;53.21;97710.00;5106140;28;20034;-77
2022/10/04 07:50:33;;;;;;;16.92;10.85;;;;;;;20.45;51.68;97727.00;5110767;28;20028;-77
2022/10/04 07:53:09;;;;;;;6.57;4.57;;;;;;;21.04;49.31;97710.97;5081627;28;20055;-78
2022/10/04 07:55:56;;;;;;;2.17;1.40;;;;;;;21.78;46.86;97716.00;5109973;28;20027;-76
2022/10/04 07:58:33;;;;;;;1.50;1.20;;;;;;;21.98;46.27;97706.63;5111073;28;20479;-75
2022/10/04 08:01:37;;;;;;;2.80;1.70;;;;;;;22.38;45.17;97696.91;5109655;28;20020;-77
2022/10/04 08:04:12;;;;;;;2.47;1.40;;;;;;;22.69;44.46;97700.81;5097185;28;20039;-76
2022/10/04 08:06:59;;;;;;;2.47;1.33;;;;;;;22.52;44.41;97688.09;5111273;28;20135;-76
2022/10/04 08:09:32;;;;;;;6.68;1.83;;;;;;;22.70;44.78;97697.06;5084852;28;20376;-76
2022/10/04 08:12:05;;;;;;;7.47;2.08;;;;;;;25.13;40.42;97714.66;5111456;28;20039;-75
2022/10/04 08:14:50;;;;;;;2.50;1.75;;;;;;;23.59;40.63;97672.56;5110879;28;20040;-76
2022/10/04 08:17:37;;;;;;;4.57;2.05;;;;;;;23.33;42.40;97686.38;5111011;28;20394;-76
2022/10/04 08:20:28;;;;;;;4.28;1.70;;;;;;;25.82;38.46;97696.31;5096890;28;20038;-76
2022/10/04 08:23:21;;;;;;;6.38;1.75;;;;;;;27.54;35.62;97686.50;5110720;28;20030;-77
2022/10/04 08:26:11;;;;;;;4.15;1.85;;;;;;;26.59;35.63;97658.38;5109760;28;20487;-77
2022/10/04 08:32:08;;;;;;;4.65;1.70;;;;;;;22.89;42.12;97644.91;5048763;28;20048;-76
2022/10/04 08:34:58;;;;;;;5.93;2.00;;;;;;;24.10;40.53;97668.50;5064910;28;20032;-77
2022/10/04 08:38:02;;;;;;;4.25;1.48;;;;;;;26.28;37.29;97667.72;5115901;28;20035;-78
2022/10/04 08:41:12;;;;;;;3.53;1.50;;;;;;;26.35;36.09;97645.84;5076097;28;20043;-78
2022/10/04 08:43:57;;;;;;;5.38;3.60;;;;;;;24.66;38.33;97631.84;5105312;28;20635;-77
2022/10/04 08:46:48;;;;;;;8.02;2.63;;;;;;;23.75;40.13;97628.81;5096872;28;20062;-77
2022/10/04 08:49:44;;;;;;;35.05;18.10;;;;;;;23.39;40.01;97630.22;5115648;27;20041;-77
2022/10/04 08:52:31;;;;;;;5.90;2.65;;;;;;;23.89;39.76;97632.69;5133650;27;20031;-76
2022/10/04 08:55:27;;;;;;;12.88;1.90;;;;;;;24.75;38.58;97649.91;5135176;27;20031;-77
2022/10/04 08:58:11;;;;;;;2.70;1.58;;;;;;;27.44;34.31;97670.34;5099569;27;20482;-77
2022/10/04 09:00:39;;;;;;;11.63;2.45;;;;;;;28.41;32.85;97652.88;5116383;27;20121;-78
2022/10/04 09:03:05;;;;;;;5.65;1.70;;;;;;;26.26;34.26;97617.69;5116429;27;20027;-77
2022/10/04 09:06:24;;;;;;;7.05;1.45;;;;;;;24.20;37.67;97603.56;5116278;27;20052;-77
2022/10/04 09:09:05;;;;;;;6.13;1.83;;;;;;;22.91;40.54;97614.75;5035132;28;20124;-78
2022/10/04 09:11:33;;;;;;;5.57;3.55;;;;;;;22.43;40.89;97612.75;5118508;27;20166;-77
2022/10/04 09:14:25;;;;;;;7.00;1.73;;;;;;;21.67;42.37;97610.06;5116231;27;20058;-80
2022/10/04 09:17:28;;;;;;;4.50;1.65;;;;;;;20.67;44.30;97606.97;5098267;27;20383;-79
2022/10/04 09:20:43;;;;;;;3.90;2.72;;;;;;;20.75;45.43;97636.06;5116174;27;20031;-78
2022/10/04 09:23:29;;;;;;;3.10;1.73;;;;;;;21.39;43.56;97649.38;5091335;28;20059;-78
2022/10/04 09:26:14;;;;;;;3.33;1.60;;;;;;;21.97;42.81;97661.31;5134013;27;20027;-79
2022/10/04 09:29:17;;;;;;;1.38;1.10;;;;;;;21.88;42.67;97651.41;5116682;27;20521;-79
2022/10/04 09:31:51;;;;;;;10.60;2.33;;;;;;;22.44;41.36;97642.59;5132929;27;20034;-78
2022/10/04 09:34:37;;;;;;;9.13;1.73;;;;;;;21.68;42.64;97628.13;5115999;27;20039;-79
2022/10/04 09:37:30;;;;;;;5.10;2.00;;;;;;;21.33;43.77;97628.25;5090115;27;20066;-78
2022/10/04 09:40:15;;;;;;;6.05;1.63;;;;;;;21.04;44.15;97633.97;5127952;27;20060;-79
2022/10/04 09:42:44;;;;;;;4.78;1.60;;;;;;;20.83;44.27;97630.69;5116043;27;20023;-78
2022/10/04 09:45:16;;;;;;;3.88;1.27;;;;;;;20.69;44.18;97637.56;5116177;27;20023;-79
2022/10/04 09:48:07;;;;;;;5.68;1.52;;;;;;;20.47;44.88;97635.28;5116443;27;20022;-78
2022/10/04 09:51:10;;;;;;;1.63;1.27;;;;;;;20.99;43.68;97658.91;5115634;27;20042;-79
2022/10/04 09:53:45;;;;;;;42.78;24.00;;;;;;;22.84;40.85;97687.38;5115479;27;20494;-80
2022/10/04 09:56:35;;;;;;;3.05;2.13;;;;;;;23.06;40.75;97671.19;5099357;27;20505;-78
2022/10/04 09:59:01;;;;;;;8.50;1.73;;;;;;;22.76;39.70;97651.91;5117839;27;20029;-77
2022/10/04 10:02:01;;;;;;;2.20;0.90;;;;;;;21.94;40.39;97618.06;5115669;27;20015;-77
2022/10/04 10:04:58;;;;;;;10.00;5.65;;;;;;;21.73;42.16;97635.78;5104433;27;20154;-78
2022/10/04 10:07:51;;;;;;;8.43;1.80;;;;;;;21.84;41.96;97632.81;5099253;27;20084;-78
2022/10/04 10:13:38;;;;;;;25.38;3.38;;;;;;;21.52;41.93;97631.59;5118671;27;20033;-79
2022/10/04 10:16:24;;;;;;;2.37;2.00;;;;;;;20.90;43.84;97635.38;5099587;27;20031;-78
2022/10/04 10:19:10;;;;;;;3.45;1.55;;;;;;;20.59;44.76;97628.63;5114937;27;20076;-78
2022/10/04 10:21:56;;;;;;;12.05;2.75;;;;;;;20.22;46.13;97639.56;5115008;27;20031;-77
2022/10/04 10:24:29;;;;;;;61.58;34.30;;;;;;;19.83;46.60;97638.94;5115183;27;20023;-79
2022/10/04 10:27:08;;;;;;;13.15;3.67;;;;;;;19.88;46.56;97650.19;5113655;27;20026;-76
2022/10/04 10:30:03;;;;;;;14.38;1.83;;;;;;;19.89;46.16;97646.50;5097692;27;20061;-78
2022/10/04 10:33:14;;;;;;;11.18;2.35;;;;;;;20.07;45.99;97648.38;5093041;27;20073;-78
2022/10/04 10:36:01;;;;;;;11.65;1.33;;;;;;;19.96;45.87;97647.56;5114583;27;20035;-78
2022/10/04 10:38:31;;;;;;;2.03;1.48;;;;;;;19.91;44.66;97643.59;5094645;28;20472;-77
2022/10/04 10:41:37;;;;;;;3.55;1.25;;;;;;;19.77;45.06;97636.84;5113504;27;20030;-78
2022/10/04 10:44:20;;;;;;;1.67;1.00;;;;;;;19.91;46.39;97652.59;5114604;27;20034;-78
2022/10/04 10:47:04;;;;;;;;;;;;;;;20.21;45.72;97658.75;5132449;27;20121;-79
2022/10/04 10:49:39;;;;;;;9.57;4.60;;;;;;;20.44;47.40;97670.94;5114867;27;19911;-79
2022/10/04 10:52:39;;;;;;;4.60;2.05;;;;;;;20.37;46.10;97662.53;5114788;27;20454;-79
2022/10/04 10:55:26;;;;;;;3.25;1.88;;;;;;;20.21;47.27;97650.59;5132638;27;20063;-78
2022/10/04 10:58:14;;;;;;;3.33;2.00;;;;;;;20.18;45.21;97648.19;5132948;27;20041;-78
2022/10/04 11:00:59;;;;;;;4.60;1.25;;;;;;;20.03;46.40;97654.13;5074705;27;20031;-81
2022/10/04 11:03:24;;;;;;;1.63;1.38;;;;;;;19.68;46.73;97642.28;5113194;27;20023;-78
2022/10/04 11:06:02;;;;;;;2.92;1.20;;;;;;;19.79;46.76;97658.38;5112082;27;20034;-77
2022/10/04 11:08:30;;;;;;;3.75;1.88;;;;;;;19.56;46.72;97652.50;5112122;27;20035;-78
2022/10/04 11:11:10;;;;;;;24.73;14.07;;;;;;;19.80;47.78;97669.09;5111423;27;20027;-78
2022/10/04 11:13:41;;;;;;;4.13;2.22;;;;;;;19.96;47.23;97669.28;5095680;27;20395;-77
2022/10/04 11:16:33;;;;;;;2.30;1.40;;;;;;;20.16;46.11;97663.78;5112108;27;20482;-78
2022/10/04 11:19:36;;;;;;;10.98;2.63;;;;;;;20.44;46.47;97674.50;5111320;27;20023;-78
2022/10/04 11:22:33;;;;;;;1.92;1.50;;;;;;;20.50;46.51;97673.03;5110836;27;20046;-78
2022/10/04 11:24:59;;;;;;;1.77;0.90;;;;;;;20.49;45.52;97672.19;5111439;27;20035;-79
2022/10/04 11:27:42;;;;;;;8.00;2.22;;;;;;;20.39;46.46;97667.81;5110938;27;20083;-78
2022/10/04 11:30:44;;;;;;;8.02;2.40;;;;;;;20.38;46.08;97669.69;5111298;27;20039;-78
2022/10/04 11:33:44;;;;;;;3.90;1.70;;;;;;;20.07;45.89;97645.66;5068031;27;20053;-78
2022/10/04 11:36:19;;;;;;;1.88;1.38;;;;;;;19.84;48.23;97659.63;5128788;27;20568;-78
2022/10/04 11:39:01;;;;;;;3.15;1.30;;;;;;;19.53;48.94;97654.63;5111688;28;20403;-78
2022/10/04 11:41:47;;;;;;;;;;;;;;;19.28;49.27;97654.25;5112268;27;20495;-78
2022/10/04 11:44:39;;;;;;;3.03;1.58;;;;;;;19.01;50.28;97656.00;5111208;28;20363;-78
2022/10/04 11:47:59;;;;;;;1.27;1.17;;;;;;;18.85;50.45;97654.75;5110223;27;20042;-77
2022/10/04 11:50:39;;;;;;;9.43;2.38;;;;;;;18.69;49.79;97653.59;5086309;28;20515;-78
2022/10/04 11:53:38;;;;;;;8.32;2.08;;;;;;;18.64;50.52;97654.00;5095036;28;20029;-78
2022/10/04 11:56:40;;;;;;;4.45;1.67;;;;;;;18.70;50.64;97671.56;5112989;28;20418;-79
2022/10/04 11:59:25;;;;;;;2.60;1.55;;;;;;;18.80;50.25;97673.28;5094653;28;20023;-77
2022/10/04 12:02:15;;;;;;;3.45;1.42;;;;;;;18.87;50.49;97674.41;5095236;28;20166;-79
2022/10/04 12:05:03;;;;;;;2.22;1.20;;;;;;;19.15;49.89;97679.97;5099373;28;20039;-78
2022/10/04 12:07:32;;;;;;;2.63;1.20;;;;;;;20.41;46.12;97704.72;5112579;28;20033;-78
2022/10/04 12:10:28;;;;;;;1.67;1.00;;;;;;;21.99;44.10;97712.94;5129321;28;20047;-78
2022/10/04 12:13:23;;;;;;;4.55;1.55;;;;;;;23.33;40.32;97693.72;5091139;28;20027;-77
2022/10/04 12:16:28;;;;;;;2.05;1.20;;;;;;;22.43;41.85;97667.28;5094590;28;20547;-77
2022/10/04 12:19:14;;;;;;;7.85;2.30;;;;;;;21.90;43.19;97670.31;5111996;28;20031;-77
2022/10/04 12:22:18;;;;;;;5.65;1.25;;;;;;;21.19;42.99;97665.06;5115002;27;20061;-79
2022/10/04 12:25:08;;;;;;;1.40;1.00;;;;;;;20.40;44.38;97647.78;5074210;28;20059;-77
2022/10/04 12:27:42;;;;;;;3.20;1.90;;;;;;;19.85;47.32;97649.63;5089643;28;20039;-76
2022/10/04 12:30:39;;;;;;;2.13;1.17;;;;;;;19.60;46.11;97651.16;5073791;28;20051;-77
2022/10/04 12:33:33;;;;;;;2.17;1.40;;;;;;;19.59;46.99;97654.91;5087510;28;20101;-77
2022/10/04 12:36:12;;;;;;;2.72;1.60;;;;;;;19.39;47.83;97659.53;5083903;28;20155;-78